createdAt,value
2023-02-19T00:00:56.156Z,96.03
2023-02-19T00:01:56.264Z,96.13
2023-02-19T00:02:56.358Z,96.23
2023-02-19T00:03:56.464Z,96.33
2023-02-19T00:04:56.540Z,96.44
2023-02-19T00:05:56.614Z,96.54
2023-02-19T00:06:56.674Z,96.54
2023-02-19T00:07:56.745Z,96.44
2023-02-19T00:08:56.838Z,96.54
2023-02-19T00:09:56.886Z,96.54
2023-02-19T00:10:56.969Z,96.54
2023-02-19T00:11:57.080Z,96.54
2023-02-19T00:12:57.156Z,96.54
2023-02-19T00:13:57.256Z,96.54
2023-02-19T00:14:57.298Z,96.54
2023-02-19T00:15:57.407Z,96.64
2023-02-19T00:16:57.449Z,96.64
2023-02-19T00:17:57.543Z,96.54
2023-02-19T00:18:57.655Z,96.54
2023-02-19T00:19:57.703Z,96.54
2023-02-19T00:20:57.785Z,96.54
2023-02-19T00:21:57.876Z,96.44
2023-02-19T00:22:57.946Z,96.54
2023-02-19T00:23:58.060Z,96.64
2023-02-19T00:24:58.091Z,96.74
2023-02-19T00:26:06.024Z,96.74
2023-02-19T00:26:58.267Z,96.99
2023-02-19T00:27:58.354Z,97.05
2023-02-19T00:28:58.514Z,97.20
2023-02-19T00:29:58.591Z,97.20
2023-02-19T00:30:58.684Z,97.20
2023-02-19T00:31:58.844Z,97.30
2023-02-19T00:32:58.772Z,97.30
2023-02-19T00:33:58.895Z,97.20
2023-02-19T00:34:58.935Z,97.09
2023-02-19T00:35:59.021Z,97.20
2023-02-19T00:36:59.081Z,97.09
2023-02-19T00:37:59.185Z,96.99
2023-02-19T00:38:59.302Z,96.89
2023-02-19T00:39:59.363Z,96.89
2023-02-19T00:40:59.465Z,96.69
2023-02-19T00:41:59.550Z,96.58
2023-02-19T00:42:59.642Z,96.48
2023-02-19T00:43:59.764Z,96.38
2023-02-19T00:44:59.807Z,96.07
2023-02-19T00:45:59.894Z,96.07
2023-02-19T00:46:59.962Z,96.07
2023-02-19T00:48:00.079Z,95.97
2023-02-19T00:49:00.252Z,95.82
2023-02-19T00:50:00.210Z,95.87
2023-02-19T00:51:00.297Z,95.62
2023-02-19T00:52:00.382Z,95.51
2023-02-19T00:53:00.473Z,95.31
2023-02-19T00:54:00.593Z,95.10
2023-02-19T00:55:00.628Z,94.90
2023-02-19T00:56:00.708Z,95.00
2023-02-19T00:57:00.792Z,95.10
2023-02-19T00:58:00.882Z,95.10
2023-02-19T00:59:00.960Z,95.00
2023-02-19T01:00:01.025Z,94.90
2023-02-19T01:01:01.080Z,95.00
2023-02-19T01:02:01.172Z,95.00
2023-02-19T01:03:01.255Z,95.10
2023-02-19T01:04:01.341Z,95.00
2023-02-19T01:05:01.470Z,94.90
2023-02-19T01:06:01.466Z,95.00
2023-02-19T01:07:01.547Z,95.10
2023-02-19T01:08:01.630Z,95.21
2023-02-19T01:09:01.725Z,95.21
2023-02-19T01:10:01.827Z,95.21
2023-02-19T01:11:01.891Z,95.21
2023-02-19T01:12:01.968Z,95.21
2023-02-19T01:13:02.068Z,95.31
2023-02-19T01:14:02.193Z,95.41
2023-02-19T01:15:02.191Z,95.51
2023-02-19T01:16:02.286Z,95.62
2023-02-19T01:17:02.347Z,95.72
2023-02-19T01:18:02.409Z,95.82
2023-02-19T01:19:02.518Z,95.82
2023-02-19T01:20:02.593Z,95.92
2023-02-19T01:21:02.677Z,96.03
2023-02-19T01:22:02.778Z,96.23
2023-02-19T01:23:02.870Z,96.33
2023-02-19T01:24:02.965Z,96.44
2023-02-19T01:25:03.006Z,96.54
2023-02-19T01:26:03.097Z,96.64
2023-02-19T01:27:03.157Z,96.64
2023-02-19T01:28:03.268Z,96.74
2023-02-19T01:29:03.376Z,96.74
2023-02-19T01:30:03.447Z,96.95
2023-02-19T01:31:03.579Z,96.99
2023-02-19T01:32:03.732Z,97.09
2023-02-19T01:33:03.665Z,97.20
2023-02-19T01:34:03.763Z,97.40
2023-02-19T01:35:03.841Z,97.50
2023-02-19T01:36:03.930Z,97.61
2023-02-19T01:37:04.030Z,97.61
2023-02-19T01:38:04.120Z,97.71
2023-02-19T01:39:04.227Z,97.81
2023-02-19T01:40:04.290Z,97.81
2023-02-19T01:41:04.361Z,97.81
2023-02-19T01:42:04.447Z,97.81
2023-02-19T01:43:04.519Z,97.91
2023-02-19T01:44:04.650Z,97.91
2023-02-19T01:45:04.717Z,98.02
2023-02-19T01:46:04.817Z,97.91
2023-02-19T01:47:04.907Z,97.91
2023-02-19T01:48:04.997Z,97.91
2023-02-19T01:49:05.083Z,97.91
2023-02-19T01:50:05.141Z,97.91
2023-02-19T01:51:05.211Z,97.91
2023-02-19T01:52:05.320Z,97.81
2023-02-19T01:53:05.396Z,97.50
2023-02-19T01:54:05.517Z,97.40
2023-02-19T01:55:05.598Z,97.30
2023-02-19T01:56:05.665Z,97.20
2023-02-19T01:57:05.751Z,97.09
2023-02-19T01:58:05.855Z,97.09
2023-02-19T01:59:09.142Z,96.99
2023-02-19T02:00:06.004Z,96.99
2023-02-19T02:01:06.195Z,96.99
2023-02-19T02:02:06.231Z,96.99
2023-02-19T02:03:06.245Z,96.99
2023-02-19T02:04:06.352Z,96.99
2023-02-19T02:05:06.467Z,96.99
2023-02-19T02:06:06.540Z,96.89
2023-02-19T02:07:06.608Z,96.69
2023-02-19T02:08:06.706Z,96.58
2023-02-19T02:09:06.797Z,96.48
2023-02-19T02:10:06.906Z,96.38
2023-02-19T02:11:06.940Z,96.28
2023-02-19T02:12:07.046Z,96.17
2023-02-19T02:13:07.131Z,96.17
2023-02-19T02:14:07.235Z,96.07
2023-02-19T02:15:07.333Z,96.07
2023-02-19T02:16:07.425Z,96.07
2023-02-19T02:17:07.477Z,95.97
2023-02-19T02:18:07.549Z,95.97
2023-02-19T02:19:07.649Z,95.97
2023-02-19T02:20:07.730Z,95.97
2023-02-19T02:21:08.083Z,96.07
2023-02-19T02:22:07.873Z,96.07
2023-02-19T02:23:07.956Z,96.07
2023-02-19T02:24:08.058Z,95.97
2023-02-19T02:25:08.174Z,95.97
2023-02-19T02:26:08.245Z,95.97
2023-02-19T02:27:08.323Z,95.87
2023-02-19T02:28:08.427Z,95.76
2023-02-19T02:29:08.502Z,95.76
2023-02-19T02:30:08.706Z,95.66
2023-02-19T02:31:09.044Z,95.66
2023-02-19T02:32:08.864Z,95.66
2023-02-19T02:33:08.869Z,95.76
2023-02-19T02:34:08.964Z,95.66
2023-02-19T02:35:09.041Z,95.66
2023-02-19T02:36:09.120Z,95.66
2023-02-19T02:37:09.187Z,95.66
2023-02-19T02:38:09.297Z,95.66
2023-02-19T02:39:09.350Z,95.66
2023-02-19T02:40:09.436Z,95.56
2023-02-19T02:41:09.855Z,95.56
2023-02-19T02:42:09.600Z,95.66
2023-02-19T02:43:09.654Z,95.66
2023-02-19T02:44:09.764Z,95.56
2023-02-19T02:45:09.864Z,95.46
2023-02-19T02:46:09.917Z,95.36
2023-02-19T02:47:10.004Z,95.15
2023-02-19T02:48:10.094Z,94.95
2023-02-19T02:49:10.178Z,94.84
2023-02-19T02:50:10.272Z,94.59
2023-02-19T02:51:10.668Z,94.64
2023-02-19T02:52:10.427Z,94.54
2023-02-19T02:53:10.476Z,94.59
2023-02-19T02:54:10.577Z,94.43
2023-02-19T02:55:10.677Z,94.43
2023-02-19T02:56:10.756Z,94.33
2023-02-19T02:57:10.841Z,94.23
2023-02-19T02:58:10.941Z,94.12
2023-02-19T02:59:11.022Z,93.92
2023-02-19T03:00:11.123Z,93.51
2023-02-19T03:01:11.519Z,93.20
2023-02-19T03:02:11.375Z,93.10
2023-02-19T03:03:11.341Z,92.96
2023-02-19T03:04:11.419Z,92.96
2023-02-19T03:05:11.539Z,93.06
2023-02-19T03:06:11.612Z,93.10
2023-02-19T03:07:11.688Z,92.90
2023-02-19T03:08:11.761Z,92.79
2023-02-19T03:09:11.854Z,92.69
2023-02-19T03:10:11.942Z,92.59
2023-02-19T03:11:12.094Z,92.44
2023-02-19T03:12:12.094Z,92.44
2023-02-19T03:13:12.187Z,92.49
2023-02-19T03:14:12.275Z,92.38
2023-02-19T03:15:12.352Z,92.34
2023-02-19T03:16:12.420Z,92.24
2023-02-19T03:17:12.506Z,92.28
2023-02-19T03:18:12.585Z,92.28
2023-02-19T03:19:12.641Z,92.24
2023-02-19T03:20:12.762Z,92.34
2023-02-19T03:21:12.966Z,92.49
2023-02-19T03:22:12.910Z,92.44
2023-02-19T03:23:12.963Z,92.59
2023-02-19T03:24:13.058Z,92.49
2023-02-19T03:25:13.156Z,92.38
2023-02-19T03:26:13.239Z,92.49
2023-02-19T03:27:13.282Z,92.59
2023-02-19T03:28:13.357Z,92.69
2023-02-19T03:29:13.415Z,92.69
2023-02-19T03:30:13.569Z,92.59
2023-02-19T03:31:13.872Z,92.38
2023-02-19T03:32:13.707Z,92.38
2023-02-19T03:33:13.738Z,92.38
2023-02-19T03:34:13.820Z,92.49
2023-02-19T03:35:13.916Z,92.49
2023-02-19T03:36:14.000Z,92.49
2023-02-19T03:37:14.104Z,92.59
2023-02-19T03:38:14.179Z,92.79
2023-02-19T03:39:14.265Z,92.79
2023-02-19T03:40:14.360Z,92.90
2023-02-19T03:41:14.410Z,93.00
2023-02-19T03:42:14.486Z,93.10
2023-02-19T03:43:14.561Z,93.20
2023-02-19T03:44:14.655Z,93.20
2023-02-19T03:45:14.750Z,93.20
2023-02-19T03:46:14.834Z,93.00
2023-02-19T03:47:14.931Z,93.00
2023-02-19T03:48:15.038Z,93.00
2023-02-19T03:49:15.115Z,93.00
2023-02-19T03:50:15.203Z,92.90
2023-02-19T03:51:15.277Z,92.79
2023-02-19T03:52:15.382Z,92.90
2023-02-19T03:53:15.472Z,93.00
2023-02-19T03:54:15.539Z,92.90
2023-02-19T03:55:15.650Z,92.90
2023-02-19T03:56:15.746Z,92.90
2023-02-19T03:57:15.815Z,92.90
2023-02-19T03:58:15.900Z,93.00
2023-02-19T03:59:15.953Z,92.90
2023-02-19T04:00:16.062Z,92.90
2023-02-19T04:01:16.133Z,92.90
2023-02-19T04:02:16.255Z,93.00
2023-02-19T04:03:16.289Z,93.00
2023-02-19T04:04:16.371Z,93.00
2023-02-19T04:05:16.466Z,93.10
2023-02-19T04:06:16.511Z,93.20
2023-02-19T04:07:16.574Z,93.20
2023-02-19T04:08:16.679Z,93.20
2023-02-19T04:09:16.738Z,93.20
2023-02-19T04:10:16.817Z,93.20
2023-02-19T04:11:16.884Z,93.20
2023-02-19T04:12:16.992Z,93.30
2023-02-19T04:13:17.078Z,93.30
2023-02-19T04:14:17.161Z,93.30
2023-02-19T04:15:17.232Z,93.30
2023-02-19T04:16:17.365Z,93.30
2023-02-19T04:17:17.391Z,93.30
2023-02-19T04:18:17.479Z,93.20
2023-02-19T04:19:17.558Z,93.20
2023-02-19T04:20:17.697Z,93.20
2023-02-19T04:21:17.732Z,93.41
2023-02-19T04:22:17.820Z,93.51
2023-02-19T04:23:17.880Z,93.51
2023-02-19T04:24:17.981Z,93.41
2023-02-19T04:25:18.055Z,93.41
2023-02-19T04:26:18.121Z,93.55
2023-02-19T04:27:18.189Z,93.51
2023-02-19T04:28:18.276Z,93.55
2023-02-19T04:29:18.333Z,93.66
2023-02-19T04:30:18.481Z,93.86
2023-02-19T04:31:18.642Z,93.96
2023-02-19T04:32:18.621Z,93.96
2023-02-19T04:33:18.669Z,93.76
2023-02-19T04:34:18.754Z,93.66
2023-02-19T04:35:18.852Z,93.66
2023-02-19T04:36:18.925Z,93.66
2023-02-19T04:37:18.974Z,93.66
2023-02-19T04:38:19.074Z,93.66
2023-02-19T04:39:19.125Z,93.76
2023-02-19T04:40:19.218Z,93.76
2023-02-19T04:41:19.267Z,93.76
2023-02-19T04:42:19.353Z,93.66
2023-02-19T04:43:19.413Z,93.55
2023-02-19T04:44:19.489Z,93.55
2023-02-19T04:45:19.560Z,93.55
2023-02-19T04:46:19.700Z,93.45
2023-02-19T04:47:19.840Z,93.25
2023-02-19T04:48:19.823Z,92.94
2023-02-19T04:49:19.879Z,92.83
2023-02-19T04:50:19.976Z,92.83
2023-02-19T04:51:20.037Z,92.74
2023-02-19T04:52:20.139Z,92.74
2023-02-19T04:53:20.193Z,92.74
2023-02-19T04:54:20.280Z,92.63
2023-02-19T04:55:20.359Z,92.43
2023-02-19T04:56:20.452Z,92.12
2023-02-19T04:57:20.519Z,92.12
2023-02-19T04:58:20.648Z,92.02
2023-02-19T04:59:20.673Z,91.91
2023-02-19T05:00:20.808Z,92.02
2023-02-19T05:01:20.934Z,91.91
2023-02-19T05:02:20.956Z,91.82
2023-02-19T05:03:21.043Z,91.71
2023-02-19T05:04:21.231Z,91.82
2023-02-19T05:05:21.229Z,92.02
2023-02-19T05:06:21.291Z,92.12
2023-02-19T05:07:21.356Z,92.12
2023-02-19T05:08:21.467Z,92.02
2023-02-19T05:09:21.539Z,92.12
2023-02-19T05:10:21.669Z,92.22
2023-02-19T05:11:21.755Z,92.22
2023-02-19T05:12:21.837Z,92.43
2023-02-19T05:13:21.939Z,92.53
2023-02-19T05:14:22.013Z,92.63
2023-02-19T05:15:22.122Z,92.74
2023-02-19T05:16:22.216Z,92.74
2023-02-19T05:17:22.293Z,92.74
2023-02-19T05:18:22.385Z,92.63
2023-02-19T05:19:22.471Z,92.53
2023-02-19T05:20:22.567Z,92.32
2023-02-19T05:21:22.613Z,92.32
2023-02-19T05:22:22.738Z,92.32
2023-02-19T05:23:22.804Z,92.43
2023-02-19T05:24:22.893Z,92.43
2023-02-19T05:25:22.981Z,92.53
2023-02-19T05:26:23.050Z,92.53
2023-02-19T05:27:23.132Z,92.53
2023-02-19T05:28:23.227Z,92.63
2023-02-19T05:29:23.279Z,92.63
2023-02-19T05:30:23.461Z,92.53
2023-02-19T05:31:23.538Z,92.43
2023-02-19T05:32:23.548Z,92.43
2023-02-19T05:33:23.636Z,92.43
2023-02-19T05:34:23.732Z,92.22
2023-02-19T05:35:23.793Z,92.22
2023-02-19T05:36:23.903Z,92.12
2023-02-19T05:37:23.946Z,91.91
2023-02-19T05:38:24.042Z,91.91
2023-02-19T05:39:24.123Z,91.82
2023-02-19T05:40:24.262Z,91.82
2023-02-19T05:41:24.288Z,91.91
2023-02-19T05:42:24.368Z,91.96
2023-02-19T05:43:24.448Z,92.06
2023-02-19T05:44:24.520Z,91.96
2023-02-19T05:45:24.636Z,91.86
2023-02-19T05:46:24.741Z,91.96
2023-02-19T05:47:24.781Z,91.96
2023-02-19T05:48:24.860Z,91.86
2023-02-19T05:49:24.936Z,91.86
2023-02-19T05:50:25.043Z,91.96
2023-02-19T05:51:25.116Z,92.06
2023-02-19T05:52:25.184Z,92.06
2023-02-19T05:53:25.263Z,92.16
2023-02-19T05:54:25.351Z,92.36
2023-02-19T05:55:25.438Z,92.36
2023-02-19T05:56:25.489Z,92.47
2023-02-19T05:57:25.588Z,92.57
2023-02-19T05:58:25.666Z,92.68
2023-02-19T05:59:25.740Z,92.78
2023-02-19T06:00:25.846Z,92.88
2023-02-19T06:01:25.913Z,93.08
2023-02-19T06:02:25.990Z,93.08
2023-02-19T06:03:26.120Z,93.29
2023-02-19T06:04:26.158Z,93.49
2023-02-19T06:05:26.293Z,93.49
2023-02-19T06:06:26.364Z,93.39
2023-02-19T06:07:26.440Z,93.39
2023-02-19T06:08:26.523Z,93.49
2023-02-19T06:09:26.602Z,93.49
2023-02-19T06:10:26.695Z,93.49
2023-02-19T06:11:26.763Z,93.60
2023-02-19T06:12:26.823Z,93.60
2023-02-19T06:13:26.915Z,93.60
2023-02-19T06:14:26.996Z,93.70
2023-02-19T06:15:27.119Z,93.80
2023-02-19T06:16:27.281Z,93.90
2023-02-19T06:17:27.245Z,93.90
2023-02-19T06:18:27.336Z,94.01
2023-02-19T06:19:27.410Z,94.11
2023-02-19T06:20:27.490Z,94.26
2023-02-19T06:21:27.626Z,94.15
2023-02-19T06:22:27.647Z,94.15
2023-02-19T06:23:27.738Z,94.05
2023-02-19T06:24:27.813Z,93.95
2023-02-19T06:25:27.906Z,93.95
2023-02-19T06:26:27.959Z,93.85
2023-02-19T06:27:28.061Z,93.85
2023-02-19T06:28:28.172Z,93.85
2023-02-19T06:29:28.254Z,93.85
2023-02-19T06:30:28.411Z,93.74
2023-02-19T06:31:28.530Z,93.74
2023-02-19T06:32:28.542Z,93.85
2023-02-19T06:33:28.581Z,93.85
2023-02-19T06:34:28.638Z,93.85
2023-02-19T06:35:28.744Z,93.64
2023-02-19T06:36:28.787Z,93.54
2023-02-19T06:37:28.883Z,93.54
2023-02-19T06:38:28.947Z,93.44
2023-02-19T06:39:29.056Z,93.44
2023-02-19T06:40:29.148Z,93.44
2023-02-19T06:41:29.200Z,93.64
2023-02-19T06:42:29.290Z,93.64
2023-02-19T06:43:29.338Z,93.64
2023-02-19T06:44:29.399Z,93.54
2023-02-19T06:45:29.536Z,93.74
2023-02-19T06:46:29.624Z,93.54
2023-02-19T06:47:29.652Z,93.54
2023-02-19T06:48:29.715Z,93.68
2023-02-19T06:49:29.784Z,93.68
2023-02-19T06:50:29.864Z,93.68
2023-02-19T06:51:29.977Z,93.79
2023-02-19T06:52:30.011Z,93.89
2023-02-19T06:53:30.136Z,93.99
2023-02-19T06:54:30.185Z,93.89
2023-02-19T06:55:30.300Z,93.99
2023-02-19T06:56:30.378Z,93.99
2023-02-19T06:57:30.450Z,94.20
2023-02-19T06:58:30.510Z,94.10
2023-02-19T06:59:30.602Z,94.20
2023-02-19T07:00:30.717Z,94.20
2023-02-19T07:01:30.784Z,94.20
2023-02-19T07:02:30.846Z,93.99
2023-02-19T07:03:30.950Z,93.95
2023-02-19T07:04:31.015Z,93.95
2023-02-19T07:05:31.137Z,93.85
2023-02-19T07:06:31.160Z,93.79
2023-02-19T07:07:31.254Z,93.64
2023-02-19T07:08:31.311Z,93.54
2023-02-19T07:09:31.425Z,93.54
2023-02-19T07:10:31.510Z,93.64
2023-02-19T07:11:31.588Z,93.44
2023-02-19T07:12:31.676Z,93.23
2023-02-19T07:13:31.761Z,93.13
2023-02-19T07:14:31.817Z,93.02
2023-02-19T07:15:31.937Z,92.93
2023-02-19T07:16:32.049Z,92.82
2023-02-19T07:17:32.101Z,92.93
2023-02-19T07:18:32.198Z,92.93
2023-02-19T07:19:32.287Z,93.02
2023-02-19T07:20:32.396Z,93.13
2023-02-19T07:21:32.481Z,93.33
2023-02-19T07:22:32.543Z,93.54
2023-02-19T07:23:32.653Z,93.64
2023-02-19T07:24:32.722Z,93.85
2023-02-19T07:25:32.839Z,93.95
2023-02-19T07:26:32.900Z,93.95
2023-02-19T07:27:32.999Z,93.95
2023-02-19T07:28:33.068Z,93.95
2023-02-19T07:29:33.166Z,93.85
2023-02-19T07:30:33.315Z,93.95
2023-02-19T07:31:33.427Z,93.95
2023-02-19T07:32:33.433Z,94.05
2023-02-19T07:33:33.522Z,94.05
2023-02-19T07:34:33.572Z,94.05
2023-02-19T07:35:33.690Z,94.15
2023-02-19T07:36:33.770Z,94.15
2023-02-19T07:37:33.856Z,94.05
2023-02-19T07:38:33.927Z,93.85
2023-02-19T07:39:33.998Z,93.85
2023-02-19T07:40:34.103Z,93.95
2023-02-19T07:41:34.170Z,94.15
2023-02-19T07:42:34.227Z,94.15
2023-02-19T07:43:34.329Z,94.26
2023-02-19T07:44:34.408Z,94.26
2023-02-19T07:45:34.521Z,94.36
2023-02-19T07:46:34.562Z,94.26
2023-02-19T07:47:34.634Z,94.26
2023-02-19T07:48:34.726Z,94.26
2023-02-19T07:49:34.797Z,94.36
2023-02-19T07:50:34.897Z,94.36
2023-02-19T07:51:34.937Z,94.21
2023-02-19T07:52:35.037Z,94.11
2023-02-19T07:53:35.134Z,93.90
2023-02-19T07:54:35.195Z,93.90
2023-02-19T07:55:35.268Z,93.80
2023-02-19T07:56:35.311Z,93.70
2023-02-19T07:57:35.382Z,93.70
2023-02-19T07:58:35.462Z,93.80
2023-02-19T07:59:35.564Z,93.90
2023-02-19T08:00:35.658Z,93.90
2023-02-19T08:01:35.766Z,93.90
2023-02-19T08:02:35.814Z,93.90
2023-02-19T08:03:35.907Z,93.90
2023-02-19T08:04:35.969Z,93.90
2023-02-19T08:05:36.058Z,94.11
2023-02-19T08:06:36.106Z,94.21
2023-02-19T08:07:36.203Z,94.11
2023-02-19T08:08:36.292Z,94.46
2023-02-19T08:09:36.388Z,94.56
2023-02-19T08:10:36.474Z,94.77
2023-02-19T08:11:36.540Z,94.87
2023-02-19T08:12:36.644Z,94.98
2023-02-19T08:13:36.744Z,95.18
2023-02-19T08:14:36.835Z,95.28
2023-02-19T08:15:36.913Z,95.28
2023-02-19T08:16:43.251Z,95.28
2023-02-19T08:17:37.070Z,95.28
2023-02-19T08:18:37.142Z,95.28
2023-02-19T08:19:37.247Z,95.39
2023-02-19T08:20:37.340Z,95.28
2023-02-19T08:21:37.397Z,95.18
2023-02-19T08:22:37.497Z,95.18
2023-02-19T08:23:37.554Z,95.07
2023-02-19T08:24:37.639Z,94.98
2023-02-19T08:25:37.771Z,94.93
2023-02-19T08:26:37.806Z,94.93
2023-02-19T08:27:37.873Z,94.83
2023-02-19T08:28:37.921Z,94.93
2023-02-19T08:29:38.014Z,94.52
2023-02-19T08:30:38.260Z,94.42
2023-02-19T08:31:38.334Z,94.32
2023-02-19T08:32:38.230Z,94.32
2023-02-19T08:33:38.306Z,94.11
2023-02-19T08:34:38.375Z,94.01
2023-02-19T08:35:38.484Z,94.01
2023-02-19T08:36:38.542Z,94.01
2023-02-19T08:37:38.644Z,93.90
2023-02-19T08:38:38.709Z,93.80
2023-02-19T08:39:38.802Z,93.25
2023-02-19T08:40:38.909Z,93.25
2023-02-19T08:41:38.977Z,92.94
2023-02-19T08:42:39.036Z,92.94
2023-02-19T08:43:39.141Z,92.83
2023-02-19T08:44:39.213Z,92.63
2023-02-19T08:45:39.347Z,92.63
2023-02-19T08:46:39.375Z,92.83
2023-02-19T08:47:39.458Z,92.83
2023-02-19T08:48:39.526Z,92.94
2023-02-19T08:49:39.620Z,92.83
2023-02-19T08:50:39.733Z,92.94
2023-02-19T08:51:39.799Z,92.74
2023-02-19T08:52:39.890Z,92.63
2023-02-19T08:53:39.972Z,92.53
2023-02-19T08:54:40.038Z,92.63
2023-02-19T08:55:40.132Z,92.28
2023-02-19T08:56:40.179Z,91.77
2023-02-19T08:57:40.280Z,91.67
2023-02-19T08:58:40.359Z,91.46
2023-02-19T08:59:40.424Z,91.46
2023-02-19T09:00:40.532Z,91.26
2023-02-19T09:01:40.664Z,91.26
2023-02-19T09:02:40.648Z,91.26
2023-02-19T09:03:40.720Z,91.16
2023-02-19T09:04:40.802Z,91.16
2023-02-19T09:05:40.965Z,91.05
2023-02-19T09:06:40.961Z,91.05
2023-02-19T09:07:41.051Z,91.01
2023-02-19T09:08:41.107Z,90.81
2023-02-19T09:09:41.203Z,90.60
2023-02-19T09:10:41.299Z,90.60
2023-02-19T09:11:41.349Z,90.50
2023-02-19T09:12:41.428Z,90.50
2023-02-19T09:13:41.538Z,90.60
2023-02-19T09:14:41.603Z,90.30
2023-02-19T09:15:41.739Z,90.30
2023-02-19T09:16:41.741Z,90.19
2023-02-19T09:17:41.810Z,90.19
2023-02-19T09:18:41.885Z,89.98
2023-02-19T09:19:41.954Z,89.78
2023-02-19T09:20:42.046Z,89.58
2023-02-19T09:21:42.093Z,89.68
2023-02-19T09:22:42.160Z,89.47
2023-02-19T09:23:42.257Z,89.53
2023-02-19T09:24:42.321Z,89.33
2023-02-19T09:25:42.423Z,89.03
2023-02-19T09:26:42.488Z,89.12
2023-02-19T09:27:42.578Z,89.23
2023-02-19T09:28:42.628Z,89.33
2023-02-19T09:29:42.709Z,89.23
2023-02-19T09:30:42.840Z,89.23
2023-02-19T09:31:43.009Z,89.33
2023-02-19T09:32:42.938Z,89.09
2023-02-19T09:33:43.023Z,88.98
2023-02-19T09:34:43.102Z,88.68
2023-02-19T09:35:43.204Z,88.51
2023-02-19T09:36:43.253Z,88.62
2023-02-19T09:37:43.341Z,88.62
2023-02-19T09:38:43.429Z,88.71
2023-02-19T09:39:43.528Z,88.62
2023-02-19T09:40:43.608Z,88.92
2023-02-19T09:41:43.696Z,88.92
2023-02-19T09:42:43.777Z,89.03
2023-02-19T09:43:43.873Z,89.03
2023-02-19T09:44:43.959Z,89.12
2023-02-19T09:45:44.063Z,89.03
2023-02-19T09:46:44.098Z,88.92
2023-02-19T09:47:44.167Z,88.98
2023-02-19T09:48:44.249Z,88.33
2023-02-19T09:49:44.349Z,88.02
2023-02-19T09:50:44.447Z,87.98
2023-02-19T09:51:44.474Z,87.77
2023-02-19T09:52:44.553Z,87.77
2023-02-19T09:53:44.634Z,87.16
2023-02-19T09:54:44.708Z,86.65
2023-02-19T09:55:44.792Z,86.69
2023-02-19T09:56:44.857Z,86.79
2023-02-19T09:57:44.948Z,86.69
2023-02-19T09:58:45.002Z,87.10
2023-02-19T09:59:45.138Z,87.30
2023-02-19T10:00:45.352Z,87.41
2023-02-19T10:01:45.285Z,86.79
2023-02-19T10:02:45.330Z,86.53
2023-02-19T10:03:45.383Z,86.63
2023-02-19T10:04:45.486Z,86.63
2023-02-19T10:05:45.828Z,86.32
2023-02-19T10:06:45.650Z,86.43
2023-02-19T10:07:45.719Z,86.83
2023-02-19T10:08:45.801Z,86.83
2023-02-19T10:09:45.893Z,86.73
2023-02-19T10:10:46.004Z,87.04
2023-02-19T10:11:46.020Z,86.83
2023-02-19T10:12:46.118Z,87.04
2023-02-19T10:13:46.187Z,86.83
2023-02-19T10:14:46.246Z,86.73
2023-02-19T10:15:46.345Z,86.94
2023-02-19T10:16:46.405Z,87.35
2023-02-19T10:17:46.465Z,87.45
2023-02-19T10:18:46.533Z,87.04
2023-02-19T10:19:46.599Z,87.24
2023-02-19T10:20:46.700Z,87.65
2023-02-19T10:21:46.736Z,87.96
2023-02-19T10:22:46.841Z,87.96
2023-02-19T10:23:46.922Z,87.85
2023-02-19T10:24:46.991Z,87.85
2023-02-19T10:25:47.087Z,87.76
2023-02-19T10:26:47.159Z,87.49
2023-02-19T10:27:47.236Z,87.38
2023-02-19T10:28:47.318Z,87.18
2023-02-19T10:29:47.399Z,87.18
2023-02-19T10:30:47.520Z,87.59
2023-02-19T10:31:47.624Z,87.70
2023-02-19T10:32:47.635Z,87.90
2023-02-19T10:33:47.728Z,88.31
2023-02-19T10:34:47.828Z,88.31
2023-02-19T10:35:47.924Z,88.41
2023-02-19T10:36:47.989Z,88.41
2023-02-19T10:37:48.057Z,88.62
2023-02-19T10:38:48.146Z,88.92
2023-02-19T10:39:48.208Z,89.12
2023-02-19T10:40:48.301Z,89.03
2023-02-19T10:41:48.347Z,88.51
2023-02-19T10:42:48.460Z,88.31
2023-02-19T10:43:48.506Z,88.20
2023-02-19T10:44:48.654Z,88.20
2023-02-19T10:45:48.701Z,88.37
2023-02-19T10:46:48.836Z,88.37
2023-02-19T10:47:48.851Z,87.85
2023-02-19T10:48:48.927Z,87.92
2023-02-19T10:49:48.992Z,87.61
2023-02-19T10:50:49.099Z,87.71
2023-02-19T10:51:49.132Z,87.00
2023-02-19T10:52:49.224Z,86.79
2023-02-19T10:53:49.288Z,86.69
2023-02-19T10:54:49.382Z,86.73
2023-02-19T10:55:49.470Z,87.04
2023-02-19T10:56:49.528Z,87.45
2023-02-19T10:57:49.599Z,87.76
2023-02-19T10:58:49.694Z,87.79
2023-02-19T10:59:49.758Z,88.10
2023-02-19T11:00:49.861Z,88.82
2023-02-19T11:01:49.920Z,89.68
2023-02-19T11:02:49.986Z,90.30
2023-02-19T11:03:50.036Z,91.11
2023-02-19T11:04:50.127Z,91.31
2023-02-19T11:05:50.206Z,91.67
2023-02-19T11:06:50.273Z,92.08
2023-02-19T11:07:50.339Z,92.49
2023-02-19T11:08:50.432Z,92.34
2023-02-19T11:09:50.485Z,92.03
2023-02-19T11:10:50.597Z,92.03
2023-02-19T11:11:50.659Z,92.14
2023-02-19T11:12:50.756Z,91.73
2023-02-19T11:13:50.824Z,91.83
2023-02-19T11:14:50.926Z,91.93
2023-02-19T11:15:51.060Z,92.34
2023-02-19T11:16:51.107Z,91.87
2023-02-19T11:17:51.165Z,91.77
2023-02-19T11:18:51.249Z,91.97
2023-02-19T11:19:51.326Z,91.93
2023-02-19T11:20:51.442Z,91.87
2023-02-19T11:21:51.509Z,91.97
2023-02-19T11:22:51.602Z,92.38
2023-02-19T11:23:51.663Z,92.55
2023-02-19T11:24:54.571Z,92.55
2023-02-19T11:25:51.830Z,93.06
2023-02-19T11:26:51.893Z,93.06
2023-02-19T11:27:51.951Z,92.65
2023-02-19T11:28:52.066Z,92.44
2023-02-19T11:29:52.149Z,92.44
2023-02-19T11:30:52.241Z,92.96
2023-02-19T11:31:52.420Z,93.22
2023-02-19T11:32:52.363Z,92.81
2023-02-19T11:33:52.432Z,93.01
2023-02-19T11:34:52.517Z,93.01
2023-02-19T11:35:52.621Z,92.50
2023-02-19T11:36:52.678Z,91.95
2023-02-19T11:37:52.735Z,91.85
2023-02-19T11:38:52.842Z,91.33
2023-02-19T11:39:52.937Z,91.23
2023-02-19T11:40:53.031Z,90.92
2023-02-19T11:41:53.072Z,90.62
2023-02-19T11:42:53.144Z,91.13
2023-02-19T11:43:53.208Z,91.13
2023-02-19T11:44:53.277Z,91.03
2023-02-19T11:45:53.416Z,90.41
2023-02-19T11:46:53.467Z,90.06
2023-02-19T11:47:53.532Z,89.97
2023-02-19T11:48:53.632Z,90.06
2023-02-19T11:49:53.710Z,89.97
2023-02-19T11:50:53.802Z,89.82
2023-02-19T11:51:53.864Z,89.76
2023-02-19T11:52:53.963Z,89.56
2023-02-19T11:53:54.055Z,89.76
2023-02-19T11:54:54.137Z,89.86
2023-02-19T11:55:54.192Z,89.86
2023-02-19T11:56:54.275Z,89.56
2023-02-19T11:57:54.360Z,89.56
2023-02-19T11:58:54.436Z,89.97
2023-02-19T11:59:54.491Z,90.11
2023-02-19T12:00:54.623Z,90.21
2023-02-19T12:01:54.681Z,90.52
2023-02-19T12:02:54.737Z,90.37
2023-02-19T12:03:54.805Z,89.90
2023-02-19T12:04:54.923Z,89.80
2023-02-19T12:05:55.003Z,89.59
2023-02-19T12:06:55.052Z,89.50
2023-02-19T12:07:55.114Z,89.70
2023-02-19T12:08:55.189Z,89.59
2023-02-19T12:09:55.278Z,89.80
2023-02-19T12:10:55.386Z,89.70
2023-02-19T12:11:55.436Z,89.29
2023-02-19T12:12:55.509Z,89.12
2023-02-19T12:13:55.593Z,89.12
2023-02-19T12:14:55.682Z,89.23
2023-02-19T12:16:55.864Z,89.43
2023-02-19T12:17:55.922Z,89.68
2023-02-19T12:18:56.031Z,89.89
2023-02-19T12:19:56.104Z,89.78
2023-02-19T12:20:56.230Z,90.19
2023-02-19T12:21:56.259Z,90.81
2023-02-19T12:22:56.337Z,91.31
2023-02-19T12:23:56.430Z,91.31
2023-02-19T12:24:56.514Z,91.52
2023-02-19T12:25:56.618Z,91.52
2023-02-19T12:26:56.699Z,91.77
2023-02-19T12:27:56.769Z,91.36
2023-02-19T12:28:56.872Z,91.63
2023-02-19T12:29:56.956Z,91.63
2023-02-19T12:30:57.100Z,91.63
2023-02-19T12:31:57.154Z,91.52
2023-02-19T12:32:57.222Z,91.52
2023-02-19T12:33:57.297Z,91.42
2023-02-19T12:34:57.407Z,90.81
2023-02-19T12:35:57.477Z,90.39
2023-02-19T12:36:57.559Z,90.30
2023-02-19T12:37:57.616Z,90.05
2023-02-19T12:38:57.702Z,90.05
2023-02-19T12:39:57.782Z,90.05
2023-02-19T12:40:57.897Z,90.25
2023-02-19T12:41:57.928Z,90.11
2023-02-19T12:42:58.020Z,89.90
2023-02-19T12:43:58.078Z,89.50
2023-02-19T12:44:58.188Z,89.70
2023-02-19T12:45:58.367Z,89.97
2023-02-19T12:46:58.306Z,89.76
2023-02-19T12:47:58.392Z,89.56
2023-02-19T12:48:58.491Z,89.51
2023-02-19T12:49:58.564Z,88.70
2023-02-19T12:50:58.680Z,88.18
2023-02-19T12:51:58.720Z,88.08
2023-02-19T12:52:58.823Z,88.29
2023-02-19T12:53:58.902Z,87.88
2023-02-19T12:54:58.989Z,87.37